Time;durP1;ratioP1;P1;durP2;ratioP2;P2;SDS_P1;SDS_P2;PMS_P1;PMS_P2;Temp;Humidity;BMP_temperature;BMP_pressure;BME280_temperature;BME280_humidity;BME280_pressure;Samples;Min_cycle;Max_cycle;Signal;HPM_P1;HPM_P2
2021/10/10 00:03:39;;;;;;;17.35;9.23;;;;;;;6.72;64.55;101718.47;8417482;34;20262;-75
2021/10/10 00:08:42;;;;;;;13.63;8.65;;;;;;;6.62;64.56;101710.84;8418910;34;20233;-75
2021/10/10 00:13:47;;;;;;;14.43;8.60;;;;;;;6.50;64.75;101705.16;8420843;34;20158;-75
2021/10/10 00:18:51;;;;;;;15.40;8.82;;;;;;;6.50;64.63;101713.19;8419939;34;20407;-76
2021/10/10 00:23:54;;;;;;;15.95;7.70;;;;;;;6.47;64.71;101706.16;8428191;34;20456;-76
2021/10/10 00:28:59;;;;;;;14.20;8.35;;;;;;;6.38;64.57;101702.09;8431607;34;20453;-75
2021/10/10 00:34:02;;;;;;;15.27;7.93;;;;;;;6.45;64.78;101701.84;8407542;34;20142;-75
2021/10/10 00:39:05;;;;;;;15.15;8.27;;;;;;;6.45;64.64;101701.84;8417729;34;20584;-75
2021/10/10 00:44:11;;;;;;;11.13;7.95;;;;;;;6.36;64.48;101695.09;8417564;34;20455;-76
2021/10/10 00:49:14;;;;;;;14.35;7.70;;;;;;;6.30;64.52;101695.34;8413963;34;20153;-76
2021/10/10 00:54:17;;;;;;;12.50;7.78;;;;;;;6.40;64.47;101705.56;8411832;34;20197;-76
2021/10/10 00:59:23;;;;;;;16.08;8.00;;;;;;;6.45;64.21;101693.84;8388605;34;20856;-76
2021/10/10 01:04:26;;;;;;;12.43;8.43;;;;;;;6.47;63.98;101695.47;8412755;34;20435;-75
2021/10/10 01:09:29;;;;;;;12.20;7.85;;;;;;;6.37;64.12;101699.50;8390285;34;20479;-76
2021/10/10 01:14:36;;;;;;;14.00;7.32;;;;;;;6.35;64.06;101696.88;8412167;34;20408;-75
2021/10/10 01:19:40;;;;;;;11.63;7.20;;;;;;;6.33;64.21;101692.53;8416392;34;20166;-75
2021/10/10 01:24:44;;;;;;;16.02;7.78;;;;;;;6.21;64.08;101687.75;8430212;34;20151;-75
2021/10/10 01:29:47;;;;;;;11.88;8.20;;;;;;;6.18;64.13;101678.91;8430807;34;20995;-75
2021/10/10 01:34:51;;;;;;;11.30;7.93;;;;;;;6.14;64.78;101680.00;8412175;34;20423;-76
2021/10/10 01:39:55;;;;;;;13.68;7.35;;;;;;;6.05;64.67;101672.34;8395946;34;20640;-74
2021/10/10 01:44:58;;;;;;;11.32;7.80;;;;;;;5.99;64.93;101672.63;8421690;34;20312;-75
2021/10/10 01:50:01;;;;;;;13.73;8.57;;;;;;;5.95;64.93;101674.56;8416471;34;21209;-75
2021/10/10 01:55:06;;;;;;;15.85;8.45;;;;;;;5.86;65.08;101663.38;8415825;34;20544;-76
2021/10/10 02:00:11;;;;;;;13.95;7.22;;;;;;;5.77;65.33;101656.63;8414160;34;20456;-76
2021/10/10 02:05:14;;;;;;;12.95;8.18;;;;;;;5.72;65.46;101663.94;8416062;34;20157;-75
2021/10/10 02:10:19;;;;;;;11.20;7.60;;;;;;;5.64;65.41;101656.25;8416542;34;21049;-75
2021/10/10 02:15:22;;;;;;;13.05;8.05;;;;;;;5.57;65.80;101660.13;8418446;34;20232;-76
2021/10/10 02:20:25;;;;;;;13.27;8.23;;;;;;;5.46;66.15;101657.00;8458766;27;20565;-77
2021/10/10 02:25:31;;;;;;;13.30;8.10;;;;;;;5.48;66.26;101656.00;8486925;34;20551;-77
2021/10/10 02:30:34;;;;;;;13.00;7.70;;;;;;;5.40;66.75;101657.22;8524542;33;20232;-77
2021/10/10 02:35:37;;;;;;;15.02;8.35;;;;;;;5.35;66.87;101651.19;8543329;33;20448;-78
2021/10/10 02:40:42;;;;;;;11.82;8.13;;;;;;;5.25;66.87;101653.38;8548717;33;20406;-77
2021/10/10 02:45:45;;;;;;;14.60;7.68;;;;;;;5.22;66.86;101641.03;8550269;33;20547;-77
2021/10/10 02:50:48;;;;;;;11.88;7.68;;;;;;;5.30;66.72;101643.41;8544780;33;20141;-77
2021/10/10 02:55:52;;;;;;;13.30;8.50;;;;;;;5.20;67.00;101639.34;8542685;33;20503;-76
2021/10/10 03:00:56;;;;;;;12.70;7.57;;;;;;;5.19;66.87;101649.16;8542254;33;20148;-77
2021/10/10 03:06:00;;;;;;;11.85;8.15;;;;;;;5.16;67.29;101635.94;8540966;33;20609;-77
2021/10/10 03:11:04;;;;;;;12.20;7.43;;;;;;;5.15;66.80;101639.53;8517554;33;20141;-77
2021/10/10 03:16:07;;;;;;;15.90;8.70;;;;;;;5.04;67.26;101642.59;8471006;33;20464;-77
2021/10/10 03:21:10;;;;;;;14.73;8.15;;;;;;;5.09;66.95;101641.56;8482663;33;20557;-76
2021/10/10 03:26:15;;;;;;;11.63;7.45;;;;;;;4.98;67.59;101629.47;8524779;33;20541;-76
2021/10/10 03:31:18;;;;;;;13.10;8.27;;;;;;;4.95;67.63;101636.72;8519782;33;20412;-76
2021/10/10 03:36:21;;;;;;;16.02;8.88;;;;;;;4.90;67.47;101618.25;8518965;33;20566;-76
2021/10/10 03:41:25;;;;;;;14.73;8.88;;;;;;;4.82;67.67;101618.53;8520820;33;20145;-75
2021/10/10 03:46:28;;;;;;;13.95;8.40;;;;;;;4.74;67.37;101615.28;8526345;33;21001;-75
2021/10/10 03:51:31;;;;;;;13.07;8.05;;;;;;;4.77;67.91;101607.22;8527278;33;20409;-75
2021/10/10 03:56:36;;;;;;;14.85;8.13;;;;;;;4.70;68.04;101595.03;8539741;33;20434;-75
2021/10/10 04:01:40;;;;;;;15.48;9.02;;;;;;;4.76;68.01;101607.25;8540175;33;20235;-76
2021/10/10 04:06:43;;;;;;;15.30;8.40;;;;;;;4.70;67.68;101608.34;8533814;33;20410;-75
2021/10/10 04:11:48;;;;;;;15.45;9.18;;;;;;;4.68;67.94;101601.34;8525344;33;20321;-75
2021/10/10 04:16:51;;;;;;;12.40;8.20;;;;;;;4.61;68.07;101604.25;8581791;33;20616;-75
2021/10/10 04:21:54;;;;;;;16.02;8.52;;;;;;;4.62;68.03;101591.81;8584174;33;20447;-76
2021/10/10 04:26:59;;;;;;;15.02;8.82;;;;;;;4.53;68.36;101587.69;8561766;33;20875;-75
2021/10/10 04:32:02;;;;;;;16.90;8.30;;;;;;;4.52;68.27;101593.91;8581517;33;20287;-75
2021/10/10 04:37:06;;;;;;;11.07;7.82;;;;;;;4.46;68.18;101583.50;8580403;33;20419;-75
2021/10/10 04:42:10;;;;;;;14.57;8.38;;;;;;;4.45;68.55;101581.78;8579707;33;20144;-75
2021/10/10 04:47:13;;;;;;;15.63;9.00;;;;;;;4.39;68.73;101579.34;8579822;33;20613;-75
2021/10/10 04:52:16;;;;;;;13.13;8.38;;;;;;;4.36;68.92;101576.78;8582316;33;20431;-75
2021/10/10 04:57:21;;;;;;;17.38;8.60;;;;;;;4.31;68.83;101576.09;8579241;33;20436;-75
2021/10/10 05:02:25;;;;;;;17.90;9.15;;;;;;;4.25;68.96;101568.31;8579904;33;20234;-75
2021/10/10 05:07:29;;;;;;;15.07;8.77;;;;;;;4.08;69.58;101571.56;8579130;33;20548;-75
2021/10/10 05:12:33;;;;;;;15.50;9.70;;;;;;;4.01;70.15;101570.94;8572974;33;20144;-76
2021/10/10 05:17:37;;;;;;;18.27;10.05;;;;;;;3.96;70.29;101570.22;8568484;33;20400;-75
2021/10/10 05:22:45;;;;;;;17.98;9.40;;;;;;;3.90;70.16;101563.31;8548206;33;20155;-75
2021/10/10 05:27:49;;;;;;;15.82;9.52;;;;;;;3.96;70.32;101564.91;8573501;33;20292;-75
2021/10/10 05:32:52;;;;;;;17.13;9.63;;;;;;;3.95;70.18;101560.50;8554604;33;20964;-75
2021/10/10 05:37:55;;;;;;;19.45;10.48;;;;;;;3.87;70.31;101563.44;8580209;33;20400;-75
2021/10/10 05:43:00;;;;;;;20.35;10.00;;;;;;;3.89;70.30;101569.53;8547902;33;20427;-75
2021/10/10 05:48:04;;;;;;;15.60;10.02;;;;;;;4.00;70.26;101568.31;8572273;33;20452;-75
2021/10/10 05:53:09;;;;;;;16.85;10.88;;;;;;;4.01;69.94;101573.59;8582479;33;20147;-76
2021/10/10 05:58:18;;;;;;;13.57;7.72;;;;;;;4.12;70.10;101571.41;8605491;33;20167;-75
2021/10/10 06:03:21;;;;;;;17.83;9.45;;;;;;;4.48;70.15;101578.13;8601142;33;20151;-77
2021/10/10 06:08:24;;;;;;;15.57;8.05;;;;;;;5.04;68.55;101575.16;8601906;33;20144;-76
2021/10/10 06:13:28;;;;;;;15.88;8.32;;;;;;;5.46;66.73;101566.38;8601678;33;20655;-76
2021/10/10 06:18:31;;;;;;;11.30;7.25;;;;;;;5.76;65.60;101566.03;8603926;33;20432;-76
2021/10/10 06:23:35;;;;;;;12.80;7.40;;;;;;;6.24;64.03;101570.19;8605394;33;20441;-77
2021/10/10 06:28:39;;;;;;;12.38;6.80;;;;;;;6.46;63.02;101567.44;8605082;33;20172;-76
2021/10/10 06:33:42;;;;;;;14.98;7.22;;;;;;;6.89;62.36;101577.06;8598550;33;20152;-75
2021/10/10 06:38:45;;;;;;;10.52;6.97;;;;;;;7.14;60.84;101571.41;8601065;33;20437;-74
2021/10/10 06:43:49;;;;;;;11.82;7.90;;;;;;;7.45;60.58;101573.44;8595567;33;20204;-76
2021/10/10 06:48:58;;;;;;;15.15;8.05;;;;;;;7.62;59.80;101571.75;8587436;33;20516;-74
2021/10/10 06:54:02;;;;;;;15.93;8.13;;;;;;;7.65;58.89;101575.16;8585542;33;20491;-76
2021/10/10 06:59:07;;;;;;;17.10;9.00;;;;;;;7.43;59.91;101578.03;8588853;33;20943;-75
2021/10/10 07:04:10;;;;;;;12.73;9.17;;;;;;;7.65;59.45;101584.97;8583186;33;20445;-75
2021/10/10 07:09:13;;;;;;;13.27;9.07;;;;;;;7.89;58.86;101585.56;8585820;33;20469;-75
2021/10/10 07:14:18;;;;;;;14.82;8.73;;;;;;;8.48;58.00;101584.31;8586801;33;20435;-75
2021/10/10 07:19:24;;;;;;;12.25;8.20;;;;;;;8.95;56.64;101591.56;8583019;33;20536;-75
2021/10/10 07:29:49;;;;;;;16.05;9.10;;;;;;;9.16;56.00;101577.91;8584635;33;20548;-75
2021/10/10 07:34:52;;;;;;;14.05;9.23;;;;;;;8.97;56.29;101576.28;8559578;33;20699;-75
2021/10/10 07:39:55;;;;;;;15.23;9.73;;;;;;;9.46;56.12;101575.31;8583652;33;20196;-74
2021/10/10 07:45:06;;;;;;;14.48;9.02;;;;;;;9.97;54.87;101580.44;8586143;33;20172;-75
2021/10/10 07:50:10;;;;;;;14.18;9.43;;;;;;;9.96;53.89;101573.34;8597110;33;20141;-74
2021/10/10 07:55:14;;;;;;;15.70;10.10;;;;;;;10.22;54.58;101575.31;8597486;33;20455;-74
2021/10/10 08:00:19;;;;;;;14.40;10.20;;;;;;;10.00;53.49;101567.69;8590981;33;20585;-74
2021/10/10 08:05:24;;;;;;;17.90;10.82;;;;;;;9.92;54.70;101578.03;8579830;33;20167;-74
2021/10/10 08:10:27;;;;;;;16.23;10.52;;;;;;;10.79;53.30;101571.81;8581369;33;20423;-75
2021/10/10 08:15:32;;;;;;;18.85;10.57;;;;;;;10.95;52.00;101577.09;8558933;33;20519;-75
2021/10/10 08:20:38;;;;;;;16.33;10.85;;;;;;;11.53;51.38;101569.78;8581479;33;20493;-76
2021/10/10 08:25:41;;;;;;;18.55;10.45;;;;;;;11.96;50.21;101565.06;8553841;33;20147;-76
2021/10/10 08:30:45;;;;;;;14.88;10.23;;;;;;;12.03;50.15;101579.81;8583593;33;20136;-75
2021/10/10 08:35:48;;;;;;;14.35;9.85;;;;;;;12.26;49.61;101583.63;8581873;33;20929;-75
2021/10/10 08:40:54;;;;;;;18.23;11.00;;;;;;;12.14;49.63;101581.75;8581597;33;20475;-76
2021/10/10 08:46:01;;;;;;;15.23;10.88;;;;;;;12.42;51.33;101579.88;8580778;33;20239;-75
2021/10/10 08:51:05;;;;;;;17.73;10.55;;;;;;;13.07;49.17;101582.41;8582048;33;20857;-75
2021/10/10 08:56:10;;;;;;;16.15;10.82;;;;;;;12.81;49.52;101568.97;8583078;33;20421;-75
2021/10/10 09:01:18;;;;;;;18.05;10.35;;;;;;;13.30;49.18;101571.75;8581876;33;20147;-75
2021/10/10 09:06:22;;;;;;;16.77;10.57;;;;;;;13.32;48.87;101570.66;8594732;33;20124;-75
2021/10/10 09:11:43;;;;;;;17.30;11.77;;;;;;;13.94;46.97;101581.31;8581010;33;20140;-75
2021/10/10 09:16:47;;;;;;;16.58;10.40;;;;;;;14.33;45.59;101583.75;8580966;33;20285;-75
2021/10/10 09:21:59;;;;;;;16.38;10.43;;;;;;;13.43;47.43;101592.34;8582347;33;20231;-75
2021/10/10 09:27:06;;;;;;;16.63;10.68;;;;;;;13.03;48.53;101589.88;8559394;33;20483;-75
2021/10/10 09:32:14;;;;;;;16.90;10.93;;;;;;;13.16;48.61;101581.72;8583769;33;20575;-75
2021/10/10 09:37:22;;;;;;;16.13;10.38;;;;;;;13.25;48.50;101588.31;8582068;33;20631;-75
2021/10/10 09:42:35;;;;;;;19.35;11.73;;;;;;;13.33;48.43;101583.22;8581452;33;20136;-75
2021/10/10 09:47:51;;;;;;;19.90;11.18;;;;;;;13.40;48.58;101584.50;8579480;33;20217;-75
2021/10/10 09:53:02;;;;;;;15.50;10.52;;;;;;;13.74;47.98;101579.28;8580040;33;21006;-75
2021/10/10 09:58:06;;;;;;;17.83;11.82;;;;;;;14.18;46.33;101569.63;8586945;33;20519;-75
2021/10/10 10:03:11;;;;;;;18.42;11.45;;;;;;;14.35;47.19;101558.34;8585530;33;20515;-75
2021/10/10 10:08:14;;;;;;;17.30;10.95;;;;;;;14.79;45.92;101550.41;8585213;33;20239;-75
2021/10/10 10:13:18;;;;;;;17.67;11.02;;;;;;;14.54;46.73;101549.66;8585186;33;20535;-75
2021/10/10 10:18:23;;;;;;;18.30;10.45;;;;;;;15.32;44.96;101539.72;8585192;33;20402;-75
2021/10/10 10:23:27;;;;;;;16.08;11.00;;;;;;;15.87;44.92;101534.25;8584833;33;20416;-75
2021/10/10 10:28:32;;;;;;;15.05;10.45;;;;;;;16.06;44.32;101518.13;8584624;33;20482;-75
2021/10/10 10:33:36;;;;;;;18.27;10.50;;;;;;;16.20;43.77;101506.09;8583975;33;20505;-75
2021/10/10 10:38:48;;;;;;;16.52;9.82;;;;;;;15.84;45.27;101510.13;8583823;33;20626;-75
2021/10/10 10:43:51;;;;;;;17.38;11.02;;;;;;;15.81;45.17;101503.13;8558293;33;20492;-75
2021/10/10 10:49:01;;;;;;;16.50;9.63;;;;;;;16.12;45.00;101511.31;8579013;33;20352;-75
2021/10/10 10:54:38;;;;;;;17.83;9.93;;;;;;;16.28;44.44;101521.72;8575227;33;20632;-75
2021/10/10 11:00:00;;;;;;;15.38;10.32;;;;;;;16.73;44.05;101524.94;8574058;33;20343;-75
2021/10/10 11:05:08;;;;;;;14.88;10.35;;;;;;;17.20;43.50;101535.25;8574009;33;20402;-75
2021/10/10 11:10:11;;;;;;;13.65;9.82;;;;;;;16.90;43.69;101544.28;8577225;33;20285;-75
2021/10/10 11:15:14;;;;;;;17.08;9.32;;;;;;;16.59;43.68;101537.03;8579219;33;20549;-75
2021/10/10 11:20:19;;;;;;;16.33;9.85;;;;;;;16.36;44.37;101530.03;8555453;33;20969;-75
2021/10/10 11:25:30;;;;;;;15.18;9.35;;;;;;;16.82;43.75;101520.53;8549959;33;20266;-75
2021/10/10 11:30:33;;;;;;;17.73;9.95;;;;;;;16.71;43.47;101531.50;8572520;33;20223;-75
2021/10/10 11:35:41;;;;;;;14.77;9.65;;;;;;;17.29;43.30;101509.97;8576849;33;20148;-75
2021/10/10 11:41:02;;;;;;;13.30;9.70;;;;;;;18.13;41.20;101503.94;8575768;33;20491;-75
2021/10/10 11:46:06;;;;;;;15.30;10.63;;;;;;;18.88;40.03;101482.19;8553274;33;20523;-75
2021/10/10 11:51:27;;;;;;;15.45;11.50;;;;;;;18.33;41.83;101477.53;8577217;33;20140;-75
2021/10/10 11:56:30;;;;;;;16.23;9.88;;;;;;;17.32;42.88;101487.94;8572042;33;20242;-76
2021/10/10 12:01:33;;;;;;;16.15;10.20;;;;;;;16.63;44.42;101479.78;8551050;33;20425;-75
2021/10/10 12:06:39;;;;;;;19.08;11.13;;;;;;;17.43;43.13;101455.22;8574806;33;20129;-75
2021/10/10 12:11:42;;;;;;;17.48;10.00;;;;;;;20.06;40.06;101451.94;8573829;33;20167;-75
2021/10/10 12:16:49;;;;;;;17.52;10.95;;;;;;;21.74;35.30;101453.81;8580479;33;20652;-75
2021/10/10 12:21:53;;;;;;;15.63;11.05;;;;;;;23.17;34.61;101453.88;8582685;33;20132;-75
2021/10/10 12:26:56;;;;;;;13.70;10.50;;;;;;;23.19;32.82;101449.06;8552251;33;20466;-76
2021/10/10 12:32:18;;;;;;;16.00;10.75;;;;;;;23.71;32.75;101447.47;8573003;33;20411;-76
2021/10/10 12:37:24;;;;;;;16.25;10.23;;;;;;;23.33;32.73;101429.09;8571735;33;20539;-75
2021/10/10 12:42:47;;;;;;;17.35;11.40;;;;;;;22.69;33.39;101429.31;8575454;33;20385;-76
2021/10/10 12:48:06;;;;;;;13.82;10.05;;;;;;;22.30;34.73;101434.75;8579629;33;20136;-75
2021/10/10 12:53:24;;;;;;;17.75;9.65;;;;;;;21.85;34.88;101431.59;8581925;33;20192;-75
2021/10/10 12:58:27;;;;;;;13.27;9.43;;;;;;;21.60;34.55;101433.47;8580981;33;20423;-75
2021/10/10 13:03:31;;;;;;;12.43;9.68;;;;;;;21.33;35.99;101428.34;8557859;33;20471;-75
2021/10/10 13:08:48;;;;;;;13.50;9.27;;;;;;;21.70;35.91;101425.13;8582674;33;20428;-75
2021/10/10 13:13:52;;;;;;;13.57;9.35;;;;;;;22.31;34.70;101418.16;8575663;33;20151;-76
2021/10/10 13:18:55;;;;;;;13.13;9.18;;;;;;;24.13;31.45;101413.09;8574444;33;20900;-75
2021/10/10 13:23:59;;;;;;;16.00;8.60;;;;;;;24.30;30.96;101407.22;8574819;33;20529;-76
2021/10/10 13:29:03;;;;;;;12.73;9.50;;;;;;;25.21;30.34;101395.88;8574382;33;20188;-76
2021/10/10 13:34:06;;;;;;;11.73;8.65;;;;;;;25.84;29.01;101393.22;8554687;33;20660;-76
2021/10/10 13:39:10;;;;;;;13.07;9.20;;;;;;;25.81;29.65;101379.88;8578910;33;20147;-75
2021/10/10 13:44:14;;;;;;;12.95;9.20;;;;;;;25.70;29.87;101374.91;8578418;33;20506;-76
2021/10/10 13:49:17;;;;;;;12.48;7.95;;;;;;;25.70;29.07;101378.53;8578793;33;20479;-75
2021/10/10 13:54:22;;;;;;;11.68;8.20;;;;;;;26.13;29.37;101375.59;8572814;33;20418;-76
2021/10/10 13:59:25;;;;;;;12.63;8.55;;;;;;;26.56;28.14;101369.91;8573800;33;20128;-77
2021/10/10 14:04:28;;;;;;;11.65;7.95;;;;;;;25.11;28.80;101370.59;8552681;33;20148;-74
2021/10/10 14:09:32;;;;;;;10.25;7.80;;;;;;;25.31;28.83;101366.09;8579423;33;20194;-75
2021/10/10 14:14:35;;;;;;;14.68;8.40;;;;;;;25.38;29.21;101360.69;8583365;33;20641;-74
2021/10/10 14:19:38;;;;;;;10.43;7.78;;;;;;;25.91;28.97;101360.25;8571909;27;20272;-79
2021/10/10 14:24:43;;;;;;;9.95;7.68;;;;;;;26.51;28.24;101355.88;8481028;34;20454;-77
2021/10/10 14:29:46;;;;;;;12.73;7.68;;;;;;;25.63;28.11;101350.06;8458485;34;20953;-77
2021/10/10 14:34:49;;;;;;;10.40;7.93;;;;;;;25.06;29.92;101360.19;8428040;34;20217;-78
2021/10/10 14:39:56;;;;;;;11.75;8.55;;;;;;;24.36;30.45;101347.97;8424690;34;20157;-76
2021/10/10 14:45:07;;;;;;;13.57;8.05;;;;;;;24.01;31.56;101355.09;8428953;34;20162;-79
2021/10/10 14:50:13;;;;;;;10.20;7.50;;;;;;;22.17;34.71;101357.84;8430509;34;20421;-78
2021/10/10 14:55:17;;;;;;;10.38;6.75;;;;;;;21.73;32.82;101350.09;8425794;34;20532;-78
2021/10/10 15:00:21;;;;;;;10.43;7.55;;;;;;;20.50;34.55;101353.59;8425956;34;20462;-78
2021/10/10 15:05:25;;;;;;;10.80;7.03;;;;;;;19.58;36.09;101357.03;8431245;34;20427;-76
2021/10/10 15:10:30;;;;;;;11.40;7.47;;;;;;;19.35;37.50;101356.69;8423250;34;20433;-79
2021/10/10 15:15:35;;;;;;;13.23;8.00;;;;;;;19.11;37.26;101358.19;8396719;34;20248;-79
2021/10/10 15:20:39;;;;;;;10.43;7.70;;;;;;;18.42;38.12;101356.09;8393756;34;20437;-78
2021/10/10 15:25:43;;;;;;;12.55;7.40;;;;;;;18.08;38.77;101348.56;8417119;34;20146;-79
2021/10/10 15:30:48;;;;;;;9.85;7.18;;;;;;;17.39;40.24;101344.31;8395281;34;20548;-79
2021/10/10 15:35:57;;;;;;;15.00;8.40;;;;;;;16.77;41.71;101341.88;8422238;34;20143;-78
2021/10/10 15:41:02;;;;;;;11.95;8.48;;;;;;;16.72;42.24;101325.16;8419311;34;20426;-79
2021/10/10 15:46:05;;;;;;;12.10;7.60;;;;;;;16.66;42.51;101328.44;8413121;34;20139;-79
2021/10/10 15:51:10;;;;;;;12.05;7.57;;;;;;;16.67;44.67;101324.72;8416842;34;20693;-78
2021/10/10 15:56:15;;;;;;;11.88;7.68;;;;;;;16.52;45.18;101324.28;8416148;34;20141;-79
2021/10/10 16:01:18;;;;;;;13.95;8.18;;;;;;;16.39;45.23;101315.56;8423473;34;20161;-77
2021/10/10 16:06:21;;;;;;;13.15;8.07;;;;;;;16.08;44.34;101306.59;8425192;34;20579;-78
2021/10/10 16:11:25;;;;;;;13.68;8.43;;;;;;;15.86;45.35;101303.09;8424519;34;20474;-77
2021/10/10 16:16:28;;;;;;;12.35;8.13;;;;;;;15.25;46.72;101300.34;8399902;34;21048;-78
2021/10/10 16:21:31;;;;;;;11.57;7.53;;;;;;;14.86;48.47;101307.31;8448265;34;20404;-76
2021/10/10 16:26:36;;;;;;;10.68;7.95;;;;;;;14.25;51.43;101310.53;8439819;34;20126;-76
2021/10/10 16:31:39;;;;;;;15.30;8.65;;;;;;;13.68;52.58;101307.03;8402432;34;20491;-78
2021/10/10 16:37:02;;;;;;;12.23;8.80;;;;;;;13.33;53.75;101313.34;8425876;34;20429;-77
2021/10/10 16:42:13;;;;;;;14.55;8.73;;;;;;;13.13;51.34;101305.94;8421282;34;20153;-76
2021/10/10 16:47:16;;;;;;;14.45;8.95;;;;;;;13.06;51.23;101316.34;8419618;34;20153;-77
2021/10/10 16:52:19;;;;;;;14.93;9.35;;;;;;;12.97;51.78;101308.94;8430313;34;20534;-75
2021/10/10 16:57:23;;;;;;;13.30;8.88;;;;;;;12.89;51.82;101308.66;8450037;34;20483;-77
2021/10/10 17:02:26;;;;;;;17.55;9.43;;;;;;;12.79;51.75;101304.00;8448181;34;20450;-77
2021/10/10 17:07:30;;;;;;;17.08;10.63;;;;;;;12.73;52.07;101309.00;8425851;34;20150;-75
2021/10/10 17:12:35;;;;;;;17.27;10.93;;;;;;;12.57;52.29;101322.75;8438747;34;20154;-78
2021/10/10 17:17:39;;;;;;;16.20;10.40;;;;;;;12.49;52.66;101309.84;8390636;34;20635;-77
2021/10/10 17:22:42;;;;;;;15.85;10.30;;;;;;;12.46;52.90;101310.09;8412838;34;20145;-76
2021/10/10 17:27:46;;;;;;;18.17;11.35;;;;;;;12.32;52.97;101311.09;8390046;34;20182;-77
2021/10/10 17:32:51;;;;;;;15.15;9.88;;;;;;;12.20;53.53;101316.50;8416452;34;20434;-78
2021/10/10 17:37:54;;;;;;;15.43;9.75;;;;;;;12.08;53.86;101321.81;8399504;34;20558;-76
2021/10/10 17:42:59;;;;;;;14.90;9.95;;;;;;;11.81;54.97;101319.25;8406921;34;20431;-78
2021/10/10 17:48:02;;;;;;;16.13;10.40;;;;;;;11.62;55.65;101325.09;8388865;34;20513;-78
2021/10/10 17:53:06;;;;;;;16.48;9.57;;;;;;;11.30;57.35;101326.47;8415549;34;20135;-78
2021/10/10 17:58:11;;;;;;;18.00;10.45;;;;;;;10.93;58.64;101328.97;8428571;34;20217;-76
2021/10/10 18:13:53;;;;;;;29.88;16.48;;;;;;;10.59;60.80;101333.94;8424356;34;20146;-77
2021/10/10 18:18:56;;;;;;;27.88;18.63;;;;;;;10.52;61.10;101329.91;8423026;34;20425;-78
2021/10/10 18:24:00;;;;;;;24.37;13.67;;;;;;;10.43;61.42;101336.75;8417512;34;20420;-78
2021/10/10 18:29:05;;;;;;;35.60;20.38;;;;;;;10.45;61.75;101334.84;8413972;34;20438;-77
2021/10/10 18:34:08;;;;;;;35.38;20.00;;;;;;;10.34;61.73;101338.22;8413980;34;20143;-76
2021/10/10 18:39:11;;;;;;;21.27;12.50;;;;;;;10.15;63.50;101335.00;8413553;34;20150;-78
2021/10/10 18:44:16;;;;;;;21.00;12.13;;;;;;;10.22;63.38;101338.16;8411292;34;20564;-77
2021/10/10 18:49:19;;;;;;;18.17;11.80;;;;;;;10.10;64.06;101350.53;8407517;34;20153;-77
2021/10/10 18:54:22;;;;;;;20.48;13.88;;;;;;;9.92;64.56;101347.19;8412421;34;20312;-77
2021/10/10 18:59:26;;;;;;;19.58;13.80;;;;;;;9.77;64.91;101349.00;8412885;34;20590;-76
2021/10/10 19:04:29;;;;;;;23.52;14.40;;;;;;;9.60;64.86;101349.16;8414812;34;20428;-77
2021/10/10 19:09:34;;;;;;;23.75;14.57;;;;;;;9.45;65.74;101345.63;8418194;34;20543;-78
2021/10/10 19:14:41;;;;;;;26.42;14.57;;;;;;;9.40;65.89;101345.88;8416610;34;20702;-75
2021/10/10 19:19:44;;;;;;;23.02;13.88;;;;;;;9.31;67.33;101350.97;8392682;34;21054;-78
2021/10/10 19:24:47;;;;;;;21.85;13.02;;;;;;;9.23;67.60;101354.09;8417457;34;21027;-77
2021/10/10 19:29:52;;;;;;;26.17;15.07;;;;;;;9.05;68.71;101354.25;8420151;34;20425;-77
2021/10/10 19:34:55;;;;;;;22.92;13.48;;;;;;;9.00;68.74;101359.00;8389594;34;20209;-77
2021/10/10 19:39:58;;;;;;;21.65;12.95;;;;;;;8.99;68.88;101359.09;8421237;34;20151;-76
2021/10/10 19:45:03;;;;;;;22.55;13.80;;;;;;;8.94;68.21;101355.81;8403096;34;20875;-77
2021/10/10 19:50:10;;;;;;;24.95;13.88;;;;;;;8.81;68.09;101355.69;8404406;34;20245;-76
2021/10/10 19:55:13;;;;;;;25.90;14.80;;;;;;;8.81;68.23;101353.88;8401539;34;20645;-78
2021/10/10 20:00:17;;;;;;;29.48;17.35;;;;;;;8.89;68.01;101352.56;8404973;34;20178;-78
2021/10/10 20:05:20;;;;;;;27.58;16.70;;;;;;;8.97;68.09;101359.19;8407710;34;20529;-78
2021/10/10 20:10:23;;;;;;;24.95;15.02;;;;;;;8.88;68.12;101359.72;8407336;34;20448;-76
2021/10/10 20:15:28;;;;;;;29.27;17.42;;;;;;;8.82;68.13;101360.94;8403408;34;20400;-77
2021/10/10 20:20:31;;;;;;;34.03;17.13;;;;;;;8.86;68.39;101372.38;8406544;28;20224;-77
2021/10/10 20:25:34;;;;;;;29.17;16.55;;;;;;;8.82;68.34;101382.38;8405973;34;20154;-76
2021/10/10 20:30:38;;;;;;;27.08;17.23;;;;;;;8.62;68.04;101380.00;8426347;34;20680;-77
2021/10/10 20:35:41;;;;;;;29.55;16.95;;;;;;;8.47;68.80;101375.50;8464288;34;20485;-77
2021/10/10 20:40:44;;;;;;;26.73;16.03;;;;;;;8.34;69.40;101375.31;8463273;33;20433;-76
2021/10/10 20:45:49;;;;;;;24.23;15.02;;;;;;;8.34;70.44;101378.84;8466397;34;20942;-77
2021/10/10 20:50:52;;;;;;;25.35;16.98;;;;;;;8.31;70.61;101379.03;8475906;33;20154;-76
2021/10/10 20:55:56;;;;;;;25.77;16.35;;;;;;;8.34;69.90;101380.66;8463067;34;20209;-75
2021/10/10 21:01:01;;;;;;;25.23;15.93;;;;;;;8.23;69.56;101388.41;8463216;33;20515;-76
2021/10/10 21:06:08;;;;;;;27.75;16.88;;;;;;;8.10;69.88;101375.72;8461040;34;20425;-76
2021/10/10 21:11:11;;;;;;;25.30;16.42;;;;;;;8.12;69.99;101383.66;8460161;33;20149;-76
2021/10/10 21:16:15;;;;;;;26.75;16.73;;;;;;;8.08;69.98;101382.09;8463523;34;20149;-75
2021/10/10 21:21:18;;;;;;;27.92;17.45;;;;;;;8.04;70.51;101378.72;8445696;34;21051;-77
2021/10/10 21:26:21;;;;;;;29.90;17.05;;;;;;;8.13;70.32;101374.69;8477622;34;20475;-76
2021/10/10 21:31:31;;;;;;;30.52;17.40;;;;;;;8.19;70.33;101363.63;8469795;33;20469;-76
2021/10/10 21:36:34;;;;;;;30.35;18.08;;;;;;;8.18;70.00;101362.75;8464539;34;20962;-76
2021/10/10 21:41:37;;;;;;;28.70;17.40;;;;;;;8.09;70.20;101365.06;8475459;33;21097;-77
2021/10/10 21:46:42;;;;;;;28.27;17.30;;;;;;;8.01;69.98;101354.81;8484224;34;20529;-77
2021/10/10 21:51:45;;;;;;;29.00;16.95;;;;;;;7.94;69.79;101345.38;8484317;33;20561;-76
2021/10/10 21:56:48;;;;;;;28.73;14.93;;;;;;;7.82;69.86;101349.59;8481954;34;20148;-76
2021/10/10 22:01:58;;;;;;;23.35;13.95;;;;;;;7.73;69.25;101350.06;8469452;33;20300;-76
2021/10/10 22:07:01;;;;;;;21.13;14.63;;;;;;;7.68;69.71;101350.34;8468922;34;20862;-76
2021/10/10 22:12:05;;;;;;;25.52;13.80;;;;;;;7.55;70.31;101338.56;8469441;33;20528;-76
2021/10/10 22:17:10;;;;;;;22.13;14.30;;;;;;;7.46;70.67;101341.72;8469510;34;20485;-77
2021/10/10 22:22:13;;;;;;;23.90;14.55;;;;;;;7.34;70.59;101326.34;8477989;33;20233;-75
2021/10/10 22:27:23;;;;;;;24.35;14.57;;;;;;;7.26;70.47;101319.56;8481974;34;20927;-76
2021/10/10 22:32:30;;;;;;;20.95;15.05;;;;;;;7.21;70.36;101329.66;8460789;34;20453;-77
2021/10/10 22:37:33;;;;;;;24.27;15.25;;;;;;;7.20;71.22;101314.56;8492130;34;20437;-76
2021/10/10 22:42:36;;;;;;;22.35;14.50;;;;;;;7.20;71.27;101319.03;8492115;33;20443;-75
2021/10/10 22:47:41;;;;;;;23.38;15.38;;;;;;;7.28;71.13;101316.81;8468304;34;20434;-76
2021/10/10 22:52:44;;;;;;;26.33;15.38;;;;;;;7.18;70.97;101304.88;8490725;33;20458;-75
2021/10/10 22:57:47;;;;;;;27.02;15.23;;;;;;;7.05;71.21;101318.03;8490484;34;20495;-76
2021/10/10 23:02:51;;;;;;;25.45;14.90;;;;;;;7.02;71.38;101319.06;8464151;34;20568;-77
2021/10/10 23:07:55;;;;;;;18.13;13.35;;;;;;;6.88;71.06;101321.53;8491601;34;20148;-76
2021/10/10 23:12:58;;;;;;;24.33;14.75;;;;;;;6.64;71.44;101315.63;8491282;33;20150;-76
2021/10/10 23:18:02;;;;;;;24.48;14.93;;;;;;;6.78;71.91;101312.25;8486714;34;20154;-76
2021/10/10 23:23:06;;;;;;;26.05;17.17;;;;;;;6.93;71.80;101300.81;8484523;33;20162;-75
2021/10/10 23:28:09;;;;;;;34.15;19.02;;;;;;;6.83;71.92;101303.06;8485851;33;20483;-76
2021/10/10 23:33:14;;;;;;;34.03;20.88;;;;;;;6.67;75.07;101282.56;8485114;33;20590;-76
2021/10/10 23:38:17;;;;;;;36.50;21.33;;;;;;;6.67;76.25;101283.41;8478291;34;20219;-76